createdAt,value
2023-01-08T00:01:17.228Z,47.70
2023-01-08T00:03:44.051Z,42.30
2023-01-08T00:06:15.110Z,46.47
2023-01-08T00:08:41.823Z,39.92
2023-01-08T00:11:14.870Z,42.22
2023-01-08T00:13:44.344Z,42.08
2023-01-08T00:16:18.682Z,50.40
2023-01-08T00:18:45.672Z,51.25
2023-01-08T00:21:12.214Z,45.05
2023-01-08T00:23:42.745Z,41.22
2023-01-08T00:26:10.050Z,36.50
2023-01-08T00:28:36.834Z,46.65
2023-01-08T00:31:09.658Z,51.83
2023-01-08T00:33:36.570Z,49.50
2023-01-08T00:36:10.052Z,43.85
2023-01-08T00:38:36.729Z,44.00
2023-01-08T00:41:07.580Z,48.38
2023-01-08T00:43:36.986Z,41.25
2023-01-08T00:46:03.809Z,42.10
2023-01-08T00:48:34.583Z,42.00
2023-01-08T00:51:02.824Z,46.65
2023-01-08T00:53:30.253Z,47.42
2023-01-08T00:56:08.737Z,37.17
2023-01-08T00:58:35.360Z,38.20
2023-01-08T01:03:44.184Z,47.85
2023-01-08T01:08:46.368Z,41.17
2023-01-08T01:11:23.232Z,43.58
2023-01-08T01:13:52.253Z,37.95
2023-01-08T01:16:18.884Z,42.03
2023-01-08T01:18:50.113Z,41.05
2023-01-08T01:21:24.632Z,50.47
2023-01-08T01:26:31.286Z,48.25
2023-01-08T01:29:00.883Z,47.28
2023-01-08T01:31:39.108Z,46.22
2023-01-08T01:34:05.611Z,48.00
2023-01-08T01:36:32.187Z,52.38
2023-01-08T01:39:00.127Z,44.05
2023-01-08T01:41:29.977Z,45.05
2023-01-08T01:43:59.171Z,49.03
2023-01-08T01:46:38.981Z,50.90
2023-01-08T01:49:13.466Z,45.08
2023-01-08T01:54:08.305Z,47.95
2023-01-08T01:56:42.448Z,45.17
2023-01-08T01:59:08.957Z,52.00
2023-01-08T02:01:36.252Z,47.25
2023-01-08T02:04:06.187Z,46.85
2023-01-08T02:06:37.278Z,42.15
2023-01-08T02:09:03.703Z,53.15
2023-01-08T02:11:30.117Z,44.15
2023-01-08T02:14:02.254Z,36.72
2023-01-08T02:16:34.581Z,40.25
2023-01-08T02:19:04.573Z,53.83
2023-01-08T02:21:50.097Z,55.70
2023-01-08T02:24:34.780Z,53.80
2023-01-08T02:27:02.581Z,47.33
2023-01-08T02:29:30.335Z,49.63
2023-01-08T02:31:56.888Z,52.83
2023-01-08T02:34:23.333Z,51.63
2023-01-08T02:36:54.477Z,41.85
2023-01-08T02:39:40.105Z,41.03
2023-01-08T02:42:18.225Z,38.40
2023-01-08T02:45:07.695Z,42.97
2023-01-08T02:47:52.705Z,51.28
2023-01-08T02:50:24.945Z,46.03
2023-01-08T02:53:10.578Z,41.08
2023-01-08T02:55:39.029Z,39.50
2023-01-08T02:58:06.046Z,42.35
2023-01-08T03:00:32.958Z,48.45
2023-01-08T03:03:25.731Z,49.63
2023-01-08T03:05:58.192Z,49.35
2023-01-08T03:08:25.192Z,51.45
2023-01-08T03:11:03.097Z,56.67
2023-01-08T03:13:45.260Z,47.03
2023-01-08T03:16:16.242Z,40.58
2023-01-08T03:18:46.780Z,42.20
2023-01-08T03:21:14.045Z,39.97
2023-01-08T03:23:41.863Z,42.33
2023-01-08T03:26:09.446Z,46.00
2023-01-08T03:28:44.896Z,46.35
2023-01-08T03:31:14.860Z,37.70
2023-01-08T03:33:44.921Z,42.55
2023-01-08T03:36:13.297Z,40.45
2023-01-08T03:38:43.205Z,37.65
2023-01-08T03:41:14.688Z,38.92
2023-01-08T03:43:41.214Z,39.38
2023-01-08T03:46:16.674Z,37.53
2023-01-08T03:48:43.895Z,46.92
2023-01-08T03:51:10.611Z,43.92
2023-01-08T03:53:37.142Z,44.92
2023-01-08T03:56:04.278Z,40.45
2023-01-08T03:58:30.889Z,36.45
2023-01-08T04:00:57.606Z,44.67
2023-01-08T04:03:26.226Z,42.85
2023-01-08T04:05:55.639Z,41.15
2023-01-08T04:08:22.384Z,39.08
2023-01-08T04:10:48.843Z,41.42
2023-01-08T04:13:15.395Z,49.20
2023-01-08T04:15:47.545Z,45.75
2023-01-08T04:18:14.011Z,45.22
2023-01-08T04:20:40.823Z,44.50
2023-01-08T04:23:07.284Z,49.17
2023-01-08T04:25:37.239Z,43.28
2023-01-08T04:28:03.699Z,42.92
2023-01-08T04:30:30.194Z,40.28
2023-01-08T04:32:56.858Z,41.65
2023-01-08T04:35:31.407Z,45.08
2023-01-08T04:40:24.371Z,41.47
2023-01-08T04:42:51.006Z,46.40
2023-01-08T04:45:17.492Z,41.47
2023-01-08T04:47:45.209Z,46.13
2023-01-08T04:50:11.894Z,45.40
2023-01-08T04:52:41.580Z,43.42
2023-01-08T04:55:08.294Z,41.65
2023-01-08T04:57:34.753Z,40.72
2023-01-08T05:00:04.257Z,41.00
2023-01-08T05:02:34.390Z,48.50
2023-01-08T05:05:00.903Z,48.40
2023-01-08T05:07:27.348Z,38.80
2023-01-08T05:09:53.808Z,51.33
2023-01-08T05:14:52.436Z,48.40
2023-01-08T05:17:22.320Z,47.72
2023-01-08T05:19:48.849Z,49.60
2023-01-08T05:22:15.819Z,51.53
2023-01-08T05:24:42.312Z,53.97
2023-01-08T05:27:08.713Z,47.00
2023-01-08T05:29:37.876Z,50.20
2023-01-08T05:32:04.498Z,47.00
2023-01-08T05:34:32.330Z,51.10
2023-01-08T05:36:58.759Z,46.97
2023-01-08T05:39:25.245Z,45.92
2023-01-08T05:41:54.539Z,41.17
2023-01-08T05:44:20.974Z,40.42
2023-01-08T05:46:48.329Z,44.95
2023-01-08T05:49:16.885Z,48.63
2023-01-08T05:51:46.479Z,39.22
2023-01-08T05:54:15.986Z,52.80
2023-01-08T05:56:42.515Z,47.22
2023-01-08T05:59:10.448Z,41.97
2023-01-08T06:01:36.960Z,49.92
2023-01-08T06:04:06.440Z,48.33
2023-01-08T06:06:32.865Z,43.33
2023-01-08T06:09:02.324Z,51.65
2023-01-08T06:11:30.353Z,47.85
2023-01-08T06:13:56.775Z,54.72
2023-01-08T06:16:23.313Z,56.15
2023-01-08T06:18:49.768Z,54.97
2023-01-08T06:21:19.010Z,43.45
2023-01-08T06:23:45.476Z,51.35
2023-01-08T06:26:18.488Z,55.92
2023-01-08T06:28:46.089Z,48.08
2023-01-08T06:31:15.405Z,55.50
2023-01-08T06:33:41.879Z,68.68
2023-01-08T06:36:08.509Z,63.22
2023-01-08T06:38:35.549Z,58.67
2023-01-08T06:41:05.982Z,54.53
2023-01-08T06:43:33.333Z,62.55
2023-01-08T06:46:02.832Z,63.40
2023-01-08T06:48:29.226Z,56.10
2023-01-08T06:50:55.917Z,57.25
2023-01-08T06:53:22.390Z,59.78
2023-01-08T06:55:48.827Z,61.60
2023-01-08T06:58:15.242Z,67.45
2023-01-08T07:00:41.912Z,60.10
2023-01-08T07:03:08.487Z,60.58
2023-01-08T07:05:35.484Z,61.40
2023-01-08T07:08:01.939Z,58.47
2023-01-08T07:10:28.401Z,64.70
2023-01-08T07:12:57.745Z,77.00
2023-01-08T07:15:25.917Z,68.97
2023-01-08T07:17:52.303Z,69.18
2023-01-08T07:20:18.849Z,75.93
2023-01-08T07:22:45.319Z,68.90
2023-01-08T07:25:11.760Z,84.40
2023-01-08T07:27:38.260Z,84.78
2023-01-08T07:30:05.160Z,78.47
2023-01-08T07:32:31.604Z,76.40
2023-01-08T07:34:58.096Z,86.38
2023-01-08T07:37:24.926Z,66.80
2023-01-08T07:39:51.578Z,57.13
2023-01-08T07:42:18.016Z,63.72
2023-01-08T07:47:16.529Z,60.70
2023-01-08T07:49:44.484Z,66.20
2023-01-08T07:52:11.077Z,59.33
2023-01-08T07:54:37.451Z,67.65
2023-01-08T07:57:04.032Z,71.90
2023-01-08T07:59:30.419Z,62.50
2023-01-08T08:01:57.021Z,60.85
2023-01-08T08:04:23.565Z,71.07
2023-01-08T08:06:50.297Z,73.25
2023-01-08T08:09:21.785Z,67.75
2023-01-08T08:11:48.240Z,63.30
2023-01-08T08:14:15.409Z,73.63
2023-01-08T08:16:44.431Z,67.95
2023-01-08T08:19:11.577Z,74.10
2023-01-08T08:21:38.183Z,70.75
2023-01-08T08:24:06.320Z,65.75
2023-01-08T08:26:32.826Z,68.85
2023-01-08T08:28:59.293Z,65.45
2023-01-08T08:31:25.922Z,64.07
2023-01-08T08:33:54.838Z,66.97
2023-01-08T08:36:21.239Z,68.55
2023-01-08T08:38:48.978Z,71.18
2023-01-08T08:41:17.361Z,74.57
2023-01-08T08:43:43.915Z,66.05
2023-01-08T08:46:14.262Z,79.63
2023-01-08T08:48:40.776Z,67.68
2023-01-08T08:51:07.174Z,81.15
2023-01-08T08:53:33.607Z,75.93
2023-01-08T08:56:00.156Z,62.30
2023-01-08T08:58:31.406Z,75.50
2023-01-08T09:01:01.764Z,72.25
2023-01-08T09:03:43.504Z,68.28
2023-01-08T09:06:17.272Z,76.63
2023-01-08T09:08:43.672Z,63.78
2023-01-08T09:11:10.213Z,70.45
2023-01-08T09:13:42.168Z,65.97
2023-01-08T09:16:08.626Z,64.22
2023-01-08T09:18:35.091Z,65.93
2023-01-08T09:21:06.231Z,65.78
2023-01-08T09:23:33.682Z,65.07
2023-01-08T09:26:03.612Z,66.13
2023-01-08T09:28:32.665Z,62.65
2023-01-08T09:31:03.223Z,72.47
2023-01-08T09:33:30.006Z,80.25
2023-01-08T09:35:56.509Z,73.50
2023-01-08T09:38:30.489Z,72.05
2023-01-08T09:41:00.252Z,64.85
2023-01-08T09:43:28.453Z,83.32
2023-01-08T09:45:56.578Z,65.22
2023-01-08T09:48:39.260Z,66.05
2023-01-08T09:51:13.427Z,72.30
2023-01-08T09:53:58.309Z,65.43
2023-01-08T09:58:57.085Z,64.18
2023-01-08T10:01:28.705Z,62.40
2023-01-08T10:04:04.279Z,60.95
2023-01-08T10:06:31.004Z,63.45
2023-01-08T10:09:00.311Z,62.70
2023-01-08T10:11:28.443Z,69.50
2023-01-08T10:13:55.863Z,58.45
2023-01-08T10:16:27.021Z,59.50
2023-01-08T10:18:56.522Z,67.18
2023-01-08T10:21:27.637Z,64.57
2023-01-08T10:23:55.149Z,57.33
2023-01-08T10:26:25.960Z,54.25
2023-01-08T10:28:52.538Z,63.58
2023-01-08T10:31:21.883Z,56.10
2023-01-08T10:33:49.526Z,72.10
2023-01-08T10:36:18.700Z,63.92
2023-01-08T10:38:55.825Z,57.50
2023-01-08T10:41:22.471Z,63.05
2023-01-08T10:43:53.771Z,64.10
2023-01-08T10:46:28.683Z,63.88
2023-01-08T10:48:57.434Z,66.55
2023-01-08T10:51:25.075Z,58.17
2023-01-08T10:53:55.509Z,67.57
2023-01-08T10:56:23.573Z,62.95
2023-01-08T10:58:50.652Z,63.78
2023-01-08T11:01:22.292Z,58.05
2023-01-08T11:04:16.064Z,62.90
2023-01-08T11:06:45.578Z,50.53
2023-01-08T11:09:25.366Z,62.35
2023-01-08T11:11:52.575Z,53.13
2023-01-08T11:14:25.205Z,51.72
2023-01-08T11:16:55.436Z,48.20
2023-01-08T11:19:24.674Z,51.50
2023-01-08T11:22:01.921Z,51.08
2023-01-08T11:24:35.634Z,46.45
2023-01-08T11:27:08.803Z,51.88
2023-01-08T11:29:42.737Z,47.05
2023-01-08T11:32:15.821Z,42.25
2023-01-08T11:34:45.059Z,47.53
2023-01-08T11:37:22.296Z,46.88
2023-01-08T11:39:53.241Z,44.88
2023-01-08T11:42:38.219Z,45.22
2023-01-08T11:45:07.487Z,47.95
2023-01-08T11:47:33.893Z,45.22
2023-01-08T11:50:21.981Z,47.80
2023-01-08T11:52:55.472Z,46.78
2023-01-08T11:55:21.963Z,47.47
2023-01-08T11:57:59.396Z,42.33
2023-01-08T12:00:34.806Z,44.10
2023-01-08T12:03:02.641Z,43.55
2023-01-08T12:05:37.703Z,44.58
2023-01-08T12:08:06.858Z,46.22
2023-01-08T12:13:17.450Z,42.15
2023-01-08T12:15:46.737Z,42.67
2023-01-08T12:18:18.922Z,43.80
2023-01-08T12:20:58.312Z,43.03
2023-01-08T12:23:24.978Z,47.20
2023-01-08T12:26:18.481Z,44.40
2023-01-08T12:28:48.111Z,46.17
2023-01-08T12:31:33.188Z,41.67
2023-01-08T12:34:05.841Z,43.10
2023-01-08T12:36:38.321Z,42.83
2023-01-08T12:39:08.722Z,40.00
2023-01-08T12:41:38.831Z,42.33
2023-01-08T12:44:06.154Z,36.83
2023-01-08T12:46:38.679Z,43.47
2023-01-08T12:49:06.961Z,38.22
2023-01-08T12:51:33.386Z,45.72
2023-01-08T12:54:08.330Z,38.20
2023-01-08T12:56:55.557Z,38.30
2023-01-08T12:59:40.910Z,38.22
2023-01-08T13:02:16.454Z,35.00
2023-01-08T13:04:44.311Z,37.65
2023-01-08T13:07:12.886Z,35.83
2023-01-08T13:09:39.436Z,34.83
2023-01-08T13:12:06.064Z,37.33
2023-01-08T13:14:40.840Z,34.65
2023-01-08T13:17:16.886Z,37.50
2023-01-08T13:19:44.765Z,38.63
2023-01-08T13:22:37.569Z,38.72
2023-01-08T13:25:08.847Z,35.03
2023-01-08T13:27:35.357Z,40.67
2023-01-08T13:30:05.996Z,40.92
2023-01-08T13:32:58.645Z,35.42
2023-01-08T13:35:26.359Z,36.75
2023-01-08T13:38:17.014Z,38.67
2023-01-08T13:40:50.091Z,36.03
2023-01-08T13:43:26.451Z,37.63
2023-01-08T13:46:01.961Z,34.95
2023-01-08T13:48:29.915Z,35.67
2023-01-08T13:50:56.548Z,36.63
2023-01-08T13:53:23.405Z,34.20
2023-01-08T13:56:00.313Z,41.63
2023-01-08T13:58:29.658Z,35.55
2023-01-08T14:00:58.107Z,22.55
2023-01-08T14:03:27.647Z,8.98
2023-01-08T14:06:05.504Z,30.70
2023-01-08T14:08:31.981Z,27.02
2023-01-08T14:10:58.549Z,31.30
2023-01-08T14:13:32.132Z,30.67
2023-01-08T14:16:01.259Z,34.93
2023-01-08T14:18:28.027Z,33.20
2023-01-08T14:20:55.094Z,37.75
2023-01-08T14:23:27.164Z,33.85
2023-01-08T14:25:53.997Z,33.03
2023-01-08T14:28:22.708Z,38.83
2023-01-08T14:30:50.127Z,35.63
2023-01-08T14:33:17.202Z,36.85
2023-01-08T14:35:46.857Z,37.95
2023-01-08T14:38:14.383Z,35.80
2023-01-08T14:40:45.303Z,39.47
2023-01-08T14:43:14.311Z,37.95
2023-01-08T14:45:45.735Z,37.85
2023-01-08T14:48:16.184Z,37.40
2023-01-08T14:50:44.059Z,37.85
2023-01-08T14:53:16.773Z,38.63
2023-01-08T14:55:44.798Z,40.03
2023-01-08T14:58:16.432Z,38.75
2023-01-08T15:00:43.278Z,39.53
2023-01-08T15:03:42.298Z,45.78
2023-01-08T15:06:09.743Z,41.85
2023-01-08T15:08:37.479Z,47.70
2023-01-08T15:11:11.547Z,49.63
2023-01-08T15:13:38.065Z,47.83
2023-01-08T15:16:25.914Z,53.38
2023-01-08T15:19:00.052Z,49.08
2023-01-08T15:21:26.784Z,52.00
2023-01-08T15:23:57.419Z,48.75
2023-01-08T15:26:24.636Z,54.42
2023-01-08T15:28:55.927Z,52.17
2023-01-08T15:31:26.852Z,58.13
2023-01-08T15:33:53.411Z,58.95
2023-01-08T15:36:19.905Z,60.55
2023-01-08T15:38:46.332Z,60.17
2023-01-08T15:41:17.884Z,65.32
2023-01-08T15:43:44.509Z,61.88
2023-01-08T15:46:11.412Z,60.65
2023-01-08T15:48:37.990Z,63.58
2023-01-08T15:51:09.189Z,59.22
2023-01-08T15:53:35.619Z,71.18
2023-01-08T15:56:02.177Z,68.85
2023-01-08T15:58:28.639Z,68.70
2023-01-08T16:00:57.605Z,60.03
2023-01-08T16:03:26.929Z,71.70
2023-01-08T16:05:53.372Z,67.72
2023-01-08T16:08:20.116Z,66.70
2023-01-08T16:10:58.322Z,64.90
2023-01-08T16:13:24.928Z,74.55
2023-01-08T16:15:51.611Z,66.38
2023-01-08T16:18:21.688Z,66.05
2023-01-08T16:23:20.055Z,67.35
2023-01-08T16:25:46.617Z,71.90
2023-01-08T16:28:13.186Z,69.65
2023-01-08T16:30:39.874Z,69.13
2023-01-08T16:33:09.902Z,62.80
2023-01-08T16:35:36.505Z,78.55
2023-01-08T16:38:03.020Z,60.47
2023-01-08T16:40:33.069Z,68.78
2023-01-08T16:43:05.828Z,72.32
2023-01-08T16:45:36.871Z,72.82
2023-01-08T16:48:03.496Z,70.28
2023-01-08T16:50:32.488Z,63.08
2023-01-08T16:53:01.623Z,67.70
2023-01-08T16:55:28.202Z,70.03
2023-01-08T16:58:00.889Z,66.10
2023-01-08T17:00:27.457Z,66.30
2023-01-08T17:02:54.107Z,71.55
2023-01-08T17:05:20.552Z,76.60
2023-01-08T17:07:50.428Z,75.05
2023-01-08T17:10:17.267Z,70.32
2023-01-08T17:12:43.738Z,69.68
2023-01-08T17:15:10.500Z,67.60
2023-01-08T17:17:36.964Z,70.50
2023-01-08T17:20:03.768Z,72.72
2023-01-08T17:22:32.534Z,67.45
2023-01-08T17:25:00.283Z,69.38
2023-01-08T17:27:27.478Z,64.90
2023-01-08T17:29:54.314Z,70.93
2023-01-08T17:32:20.769Z,66.32
2023-01-08T17:34:47.374Z,68.75
2023-01-08T17:37:13.777Z,76.95
2023-01-08T17:39:40.172Z,63.92
2023-01-08T17:42:06.552Z,74.80
2023-01-08T17:44:33.014Z,69.53
2023-01-08T17:47:02.018Z,73.32
2023-01-08T17:49:31.426Z,64.90
2023-01-08T17:51:59.343Z,82.70
2023-01-08T17:54:25.860Z,81.57
2023-01-08T17:56:52.995Z,81.70
2023-01-08T17:59:19.503Z,82.30
2023-01-08T18:01:46.361Z,73.75
2023-01-08T18:04:13.497Z,76.90
2023-01-08T18:06:40.215Z,80.13
2023-01-08T18:09:06.958Z,84.93
2023-01-08T18:11:33.431Z,77.43
2023-01-08T18:14:02.058Z,91.30
2023-01-08T18:16:29.124Z,72.38
2023-01-08T18:18:56.247Z,125.50
2023-01-08T18:21:22.834Z,113.53
2023-01-08T18:23:54.139Z,86.75
2023-01-08T18:26:21.092Z,112.95
2023-01-08T18:28:51.209Z,110.40
2023-01-08T18:31:17.898Z,99.68
2023-01-08T18:33:44.372Z,84.38
2023-01-08T18:36:17.279Z,117.55
2023-01-08T18:38:44.435Z,105.45
2023-01-08T18:41:13.096Z,91.43
2023-01-08T18:43:39.538Z,103.78
2023-01-08T18:46:07.081Z,112.57
2023-01-08T18:48:36.597Z,129.73
2023-01-08T18:51:03.944Z,97.22
2023-01-08T18:53:30.380Z,106.43
2023-01-08T18:56:01.579Z,93.60
2023-01-08T18:58:29.987Z,102.45
2023-01-08T19:01:02.334Z,119.10
2023-01-08T19:03:28.861Z,105.18
2023-01-08T19:05:55.342Z,98.13
2023-01-08T19:08:21.886Z,100.32
2023-01-08T19:10:48.344Z,120.80
2023-01-08T19:13:14.852Z,129.65
2023-01-08T19:15:44.049Z,124.97
2023-01-08T19:18:10.536Z,99.95
2023-01-08T19:20:41.144Z,126.68
2023-01-08T19:23:10.821Z,133.55
2023-01-08T19:25:43.245Z,91.18
2023-01-08T19:28:09.660Z,113.63
2023-01-08T19:30:39.691Z,92.35
2023-01-08T19:33:09.949Z,117.63
2023-01-08T19:35:40.200Z,120.80
2023-01-08T19:38:11.031Z,131.35
2023-01-08T19:40:37.520Z,118.13
2023-01-08T19:43:03.965Z,113.80
2023-01-08T19:45:32.530Z,104.63
2023-01-08T19:48:00.044Z,93.30
2023-01-08T19:50:28.437Z,101.78
2023-01-08T19:52:58.141Z,117.05
2023-01-08T19:55:24.721Z,95.82
2023-01-08T19:57:51.611Z,94.88
2023-01-08T20:00:18.296Z,111.40
2023-01-08T20:02:44.772Z,92.82
2023-01-08T20:05:12.108Z,90.18
2023-01-08T20:07:39.840Z,81.57
2023-01-08T20:10:06.792Z,64.72
2023-01-08T20:12:33.429Z,71.75
2023-01-08T20:14:59.928Z,71.35
2023-01-08T20:17:29.028Z,74.20
2023-01-08T20:19:56.013Z,80.28
2023-01-08T20:22:22.710Z,67.47
2023-01-08T20:24:49.223Z,69.90
2023-01-08T20:27:15.811Z,92.53
2023-01-08T20:29:44.756Z,84.72
2023-01-08T20:32:11.349Z,90.80
2023-01-08T20:34:38.591Z,82.00
2023-01-08T20:37:06.043Z,84.57
2023-01-08T20:39:34.133Z,84.40
2023-01-08T20:42:04.495Z,87.22
2023-01-08T20:44:35.780Z,84.03
2023-01-08T20:47:02.252Z,88.22
2023-01-08T20:49:28.742Z,96.05
2023-01-08T20:51:59.091Z,74.57
2023-01-08T20:54:26.176Z,72.13
2023-01-08T20:56:54.840Z,61.53
2023-01-08T20:59:21.270Z,55.50
2023-01-08T21:01:48.907Z,78.15
2023-01-08T21:04:16.689Z,77.15
2023-01-08T21:06:43.147Z,75.00
2023-01-08T21:09:10.793Z,69.93
2023-01-08T21:11:38.789Z,62.92
2023-01-08T21:14:05.723Z,65.95
2023-01-08T21:16:32.555Z,63.80
2023-01-08T21:18:59.156Z,60.20
2023-01-08T21:21:27.079Z,53.13
2023-01-08T21:23:54.062Z,50.92
2023-01-08T21:26:20.801Z,58.10
2023-01-08T21:28:47.483Z,59.22
2023-01-08T21:31:16.299Z,47.95
2023-01-08T21:33:43.557Z,54.67
2023-01-08T21:36:13.169Z,52.80
2023-01-08T21:38:40.963Z,54.05
2023-01-08T21:41:09.214Z,51.58
2023-01-08T21:43:39.117Z,44.85
2023-01-08T21:46:05.735Z,46.15
2023-01-08T21:48:32.182Z,37.38
2023-01-08T21:50:58.609Z,43.08
2023-01-08T21:53:25.070Z,29.35
2023-01-08T21:55:54.145Z,31.80
2023-01-08T21:58:20.620Z,30.48
2023-01-08T22:00:50.321Z,33.95
2023-01-08T22:03:17.176Z,34.08
2023-01-08T22:05:43.636Z,31.60
2023-01-08T22:08:10.103Z,38.22
2023-01-08T22:10:37.132Z,35.50
2023-01-08T22:13:03.599Z,35.10
2023-01-08T22:15:33.216Z,36.92
2023-01-08T22:17:59.678Z,33.22
2023-01-08T22:20:26.115Z,33.88
2023-01-08T22:22:52.500Z,37.80
2023-01-08T22:25:18.912Z,36.53
2023-01-08T22:27:45.386Z,38.78
2023-01-08T22:30:11.962Z,48.75
2023-01-08T22:32:38.421Z,44.20
2023-01-08T22:35:06.115Z,47.28
2023-01-08T22:40:07.344Z,54.47
2023-01-08T22:45:05.546Z,51.60
2023-01-08T22:47:32.076Z,45.75
2023-01-08T22:50:01.546Z,52.05
2023-01-08T22:52:30.073Z,50.55
2023-01-08T22:54:59.626Z,59.75
2023-01-08T22:57:26.007Z,69.60
2023-01-08T22:59:52.965Z,61.95
2023-01-08T23:02:19.372Z,61.35
2023-01-08T23:04:49.191Z,46.30
2023-01-08T23:07:15.634Z,47.80
2023-01-08T23:09:42.042Z,53.28
2023-01-08T23:12:08.477Z,50.00
2023-01-08T23:14:35.051Z,48.15
2023-01-08T23:17:01.588Z,45.90
2023-01-08T23:19:28.057Z,51.65
2023-01-08T23:21:54.457Z,45.08
2023-01-08T23:24:21.347Z,43.65
2023-01-08T23:26:47.767Z,48.55
2023-01-08T23:29:15.896Z,45.00
2023-01-08T23:31:42.342Z,42.38
2023-01-08T23:34:08.824Z,37.78
2023-01-08T23:36:35.526Z,36.58
2023-01-08T23:39:02.042Z,35.30
2023-01-08T23:41:29.474Z,34.90
2023-01-08T23:43:55.896Z,36.33
2023-01-08T23:46:25.008Z,36.25
2023-01-08T23:48:55.740Z,38.83
2023-01-08T23:51:22.750Z,39.33
2023-01-08T23:53:49.167Z,51.17
2023-01-08T23:56:15.570Z,55.90
2023-01-08T23:58:42.397Z,64.28
